createdAt,value
2018-05-26T00:00:16.533Z,76.80
2018-05-26T00:01:16.558Z,76.90
2018-05-26T00:02:16.586Z,76.61
2018-05-26T00:03:16.616Z,77.09
2018-05-26T00:04:16.640Z,76.03
2018-05-26T00:05:16.670Z,76.51
2018-05-26T00:06:16.698Z,76.23
2018-05-26T00:07:16.724Z,76.23
2018-05-26T00:08:16.747Z,76.32
2018-05-26T00:09:16.779Z,76.13
2018-05-26T00:10:16.801Z,76.32
2018-05-26T00:11:16.834Z,76.13
2018-05-26T00:12:16.853Z,76.23
2018-05-26T00:13:16.883Z,76.32
2018-05-26T00:14:16.908Z,77.28
2018-05-26T00:15:16.937Z,76.23
2018-05-26T00:16:16.969Z,76.32
2018-05-26T00:17:16.997Z,76.32
2018-05-26T00:18:17.026Z,76.71
2018-05-26T00:19:17.055Z,77.58
2018-05-26T00:20:17.079Z,77.48
2018-05-26T00:21:17.102Z,77.38
2018-05-26T00:22:17.122Z,76.32
2018-05-26T00:23:17.170Z,76.32
2018-05-26T00:24:17.173Z,75.93
2018-05-26T00:25:17.219Z,76.13
2018-05-26T00:26:17.230Z,76.32
2018-05-26T00:27:17.259Z,76.32
2018-05-26T00:28:17.288Z,76.13
2018-05-26T00:29:17.318Z,76.32
2018-05-26T00:30:17.364Z,76.32
2018-05-26T00:31:17.879Z,76.13
2018-05-26T00:32:17.410Z,76.51
2018-05-26T00:33:17.466Z,76.90
2018-05-26T00:34:17.462Z,77.09
2018-05-26T00:35:17.470Z,77.19
2018-05-26T00:36:17.524Z,76.61
2018-05-26T00:37:17.531Z,77.58
2018-05-26T00:38:17.561Z,77.19
2018-05-26T00:39:17.589Z,77.19
2018-05-26T00:40:17.672Z,77.09
2018-05-26T00:41:17.651Z,77.58
2018-05-26T00:42:17.682Z,77.44
2018-05-26T00:43:17.690Z,77.76
2018-05-26T00:44:17.715Z,77.19
2018-05-26T00:45:17.793Z,77.48
2018-05-26T00:46:17.788Z,77.48
2018-05-26T00:47:17.804Z,77.09
2018-05-26T00:48:17.833Z,77.09
2018-05-26T00:49:17.854Z,77.44
2018-05-26T00:50:17.876Z,76.57
2018-05-26T00:51:17.905Z,77.09
2018-05-26T00:52:17.940Z,76.13
2018-05-26T00:53:17.950Z,76.13
2018-05-26T00:54:17.977Z,76.51
2018-05-26T00:55:18.000Z,76.23
2018-05-26T00:56:18.036Z,77.25
2018-05-26T00:57:18.067Z,77.09
2018-05-26T00:58:18.087Z,76.71
2018-05-26T00:59:18.109Z,77.00
2018-05-26T01:00:18.141Z,77.28
2018-05-26T01:01:18.177Z,77.00
2018-05-26T01:02:18.209Z,77.09
2018-05-26T01:03:18.218Z,77.15
2018-05-26T01:04:18.248Z,77.15
2018-05-26T01:05:18.274Z,77.06
2018-05-26T01:06:18.303Z,76.71
2018-05-26T01:07:18.340Z,76.76
2018-05-26T01:08:18.361Z,76.57
2018-05-26T01:09:18.383Z,76.96
2018-05-26T01:10:18.499Z,76.86
2018-05-26T01:11:18.433Z,77.15
2018-05-26T01:12:18.465Z,77.63
2018-05-26T01:13:18.496Z,77.25
2018-05-26T01:14:18.519Z,77.73
2018-05-26T01:15:18.545Z,77.63
2018-05-26T01:16:18.566Z,78.69
2018-05-26T01:17:18.600Z,78.11
2018-05-26T01:18:18.627Z,78.11
2018-05-26T01:19:18.654Z,77.73
2018-05-26T01:20:18.668Z,78.75
2018-05-26T01:21:18.703Z,79.52
2018-05-26T01:22:18.733Z,79.33
2018-05-26T01:23:18.755Z,79.03
2018-05-26T01:24:18.788Z,79.33
2018-05-26T01:25:18.805Z,79.23
2018-05-26T01:26:18.830Z,79.03
2018-05-26T01:27:18.868Z,79.23
2018-05-26T01:28:18.894Z,79.43
2018-05-26T01:29:18.913Z,78.85
2018-05-26T01:30:18.935Z,78.94
2018-05-26T01:31:18.978Z,78.94
2018-05-26T01:32:18.990Z,78.59
2018-05-26T01:33:19.018Z,78.31
2018-05-26T01:34:19.043Z,78.50
2018-05-26T01:35:19.081Z,78.40
2018-05-26T01:36:19.092Z,78.31
2018-05-26T01:37:19.122Z,78.40
2018-05-26T01:38:19.150Z,78.40
2018-05-26T01:39:19.199Z,78.40
2018-05-26T01:40:19.200Z,78.56
2018-05-26T01:41:19.226Z,79.71
2018-05-26T01:42:19.257Z,79.90
2018-05-26T01:43:19.284Z,79.71
2018-05-26T01:44:19.304Z,78.65
2018-05-26T01:45:19.334Z,79.33
2018-05-26T01:46:19.360Z,79.03
2018-05-26T01:47:19.387Z,79.23
2018-05-26T01:48:19.421Z,80.19
2018-05-26T01:49:19.445Z,79.90
2018-05-26T01:50:19.467Z,79.71
2018-05-26T01:51:19.496Z,79.71
2018-05-26T01:52:19.528Z,79.52
2018-05-26T01:53:19.543Z,80.68
2018-05-26T01:54:19.585Z,80.10
2018-05-26T01:55:19.596Z,80.19
2018-05-26T01:56:19.627Z,81.21
2018-05-26T01:57:19.654Z,80.92
2018-05-26T01:58:19.677Z,80.48
2018-05-26T01:59:19.700Z,80.77
2018-05-26T02:00:19.733Z,80.68
2018-05-26T02:01:19.759Z,80.19
2018-05-26T02:02:19.784Z,80.19
2018-05-26T02:03:19.812Z,79.71
2018-05-26T02:04:19.832Z,79.71
2018-05-26T02:05:19.860Z,79.61
2018-05-26T02:06:19.890Z,79.71
2018-05-26T02:07:19.916Z,79.90
2018-05-26T02:08:19.940Z,79.71
2018-05-26T02:09:19.972Z,79.43
2018-05-26T02:10:19.988Z,78.85
2018-05-26T02:11:20.029Z,79.81
2018-05-26T02:12:20.074Z,80.29
2018-05-26T02:13:20.075Z,80.10
2018-05-26T02:14:20.094Z,80.35
2018-05-26T02:15:20.140Z,80.19
2018-05-26T02:16:20.146Z,81.30
2018-05-26T02:17:20.188Z,80.92
2018-05-26T02:18:20.215Z,80.92
2018-05-26T02:19:20.231Z,81.98
2018-05-26T02:20:20.261Z,81.50
2018-05-26T02:21:20.283Z,82.17
2018-05-26T02:22:20.315Z,81.50
2018-05-26T02:23:20.339Z,80.83
2018-05-26T02:24:20.359Z,80.83
2018-05-26T02:25:20.380Z,80.87
2018-05-26T02:26:20.407Z,81.21
2018-05-26T02:27:20.446Z,81.30
2018-05-26T02:28:20.462Z,81.02
2018-05-26T02:29:20.496Z,81.30
2018-05-26T02:30:20.521Z,81.12
2018-05-26T02:31:20.540Z,81.02
2018-05-26T02:32:20.578Z,80.35
2018-05-26T02:33:20.597Z,80.92
2018-05-26T02:34:20.618Z,80.87
2018-05-26T02:35:20.648Z,80.15
2018-05-26T02:36:20.671Z,80.68
2018-05-26T02:37:20.728Z,80.48
2018-05-26T02:38:20.724Z,80.58
2018-05-26T02:39:20.760Z,80.48
2018-05-26T02:40:20.773Z,80.19
2018-05-26T02:41:20.807Z,80.19
2018-05-26T02:42:20.833Z,79.90
2018-05-26T02:43:20.867Z,79.81
2018-05-26T02:44:20.887Z,79.71
2018-05-26T02:45:20.913Z,78.65
2018-05-26T02:46:20.939Z,79.33
2018-05-26T02:47:20.966Z,79.81
2018-05-26T02:48:20.995Z,78.85
2018-05-26T02:49:21.020Z,79.33
2018-05-26T02:50:21.038Z,78.94
2018-05-26T02:51:21.067Z,79.33
2018-05-26T02:52:21.090Z,79.61
2018-05-26T02:53:21.116Z,79.81
2018-05-26T02:54:21.141Z,78.94
2018-05-26T02:55:21.165Z,79.13
2018-05-26T02:56:21.196Z,79.03
2018-05-26T02:57:21.223Z,79.81
2018-05-26T02:58:21.252Z,79.81
2018-05-26T02:59:21.276Z,79.43
2018-05-26T03:00:21.298Z,79.71
2018-05-26T03:01:21.330Z,79.03
2018-05-26T03:02:21.354Z,78.85
2018-05-26T03:03:21.381Z,78.65
2018-05-26T03:04:21.416Z,79.23
2018-05-26T03:05:21.432Z,78.94
2018-05-26T03:06:21.455Z,79.52
2018-05-26T03:07:21.487Z,79.61
2018-05-26T03:08:21.505Z,79.52
2018-05-26T03:09:21.534Z,78.94
2018-05-26T03:10:21.560Z,79.33
2018-05-26T03:11:21.583Z,79.23
2018-05-26T03:12:21.611Z,79.03
2018-05-26T03:13:21.639Z,79.67
2018-05-26T03:14:21.669Z,79.90
2018-05-26T03:15:21.690Z,79.52
2018-05-26T03:16:21.713Z,79.71
2018-05-26T03:17:21.858Z,79.38
2018-05-26T03:18:21.767Z,79.96
2018-05-26T03:19:21.814Z,79.96
2018-05-26T03:20:21.824Z,79.90
2018-05-26T03:21:21.858Z,79.71
2018-05-26T03:22:21.878Z,79.38
2018-05-26T03:23:21.899Z,79.86
2018-05-26T03:24:21.925Z,79.71
2018-05-26T03:25:21.957Z,79.71
2018-05-26T03:26:21.970Z,78.94
2018-05-26T03:27:21.998Z,79.58
2018-05-26T03:28:22.029Z,79.38
2018-05-26T03:29:22.063Z,79.43
2018-05-26T03:30:22.095Z,79.33
2018-05-26T03:31:22.103Z,79.67
2018-05-26T03:32:22.134Z,79.38
2018-05-26T03:33:22.166Z,79.71
2018-05-26T03:34:22.184Z,79.48
2018-05-26T03:35:22.210Z,80.06
2018-05-26T03:36:22.267Z,80.35
2018-05-26T03:37:22.273Z,80.54
2018-05-26T03:38:22.290Z,80.06
2018-05-26T03:39:22.313Z,79.86
2018-05-26T03:40:22.337Z,79.86
2018-05-26T03:41:22.380Z,80.06
2018-05-26T03:42:22.389Z,79.86
2018-05-26T03:43:22.416Z,79.86
2018-05-26T03:44:22.442Z,79.48
2018-05-26T03:45:22.496Z,79.28
2018-05-26T03:46:22.500Z,79.28
2018-05-26T03:47:22.539Z,79.86
2018-05-26T03:48:22.544Z,79.86
2018-05-26T03:49:22.576Z,79.96
2018-05-26T03:50:22.601Z,79.77
2018-05-26T03:51:22.629Z,80.63
2018-05-26T03:52:22.646Z,80.06
2018-05-26T03:53:22.677Z,80.44
2018-05-26T03:54:22.707Z,80.25
2018-05-26T03:55:22.729Z,79.86
2018-05-26T03:56:22.762Z,79.96
2018-05-26T03:57:22.789Z,79.86
2018-05-26T03:58:22.811Z,79.77
2018-05-26T03:59:22.833Z,79.86
2018-05-26T04:00:22.862Z,79.86
2018-05-26T04:01:22.877Z,79.77
2018-05-26T04:02:22.912Z,79.77
2018-05-26T04:03:22.938Z,79.77
2018-05-26T04:04:23.005Z,79.48
2018-05-26T04:05:22.984Z,79.38
2018-05-26T04:06:23.018Z,79.86
2018-05-26T04:07:23.039Z,79.86
2018-05-26T04:08:23.070Z,79.38
2018-05-26T04:09:23.095Z,79.48
2018-05-26T04:10:23.116Z,79.58
2018-05-26T04:11:23.173Z,79.48
2018-05-26T04:12:23.166Z,79.67
2018-05-26T04:13:23.203Z,79.58
2018-05-26T04:14:23.231Z,80.15
2018-05-26T04:15:23.244Z,80.54
2018-05-26T04:16:23.268Z,80.63
2018-05-26T04:17:23.295Z,80.35
2018-05-26T04:18:23.335Z,80.35
2018-05-26T04:19:23.355Z,81.17
2018-05-26T04:20:23.376Z,81.65
2018-05-26T04:21:23.407Z,82.14
2018-05-26T04:22:23.421Z,81.07
2018-05-26T04:23:23.450Z,80.79
2018-05-26T04:24:23.475Z,82.04
2018-05-26T04:25:23.505Z,81.02
2018-05-26T04:26:23.531Z,81.65
2018-05-26T04:27:23.598Z,81.17
2018-05-26T04:28:23.584Z,81.17
2018-05-26T04:29:23.609Z,82.14
2018-05-26T04:30:23.639Z,81.65
2018-05-26T04:31:23.660Z,81.07
2018-05-26T04:32:23.685Z,81.94
2018-05-26T04:33:23.709Z,81.40
2018-05-26T04:34:23.740Z,80.73
2018-05-26T04:35:23.784Z,80.92
2018-05-26T04:36:23.784Z,80.35
2018-05-26T04:37:23.818Z,81.17
2018-05-26T04:38:23.842Z,81.27
2018-05-26T04:39:23.873Z,80.92
2018-05-26T04:40:23.893Z,80.35
2018-05-26T04:41:23.918Z,80.44
2018-05-26T04:42:23.943Z,80.63
2018-05-26T04:43:23.963Z,80.15
2018-05-26T04:44:23.995Z,80.15
2018-05-26T04:45:24.026Z,80.06
2018-05-26T04:46:24.055Z,80.06
2018-05-26T04:47:24.075Z,80.35
2018-05-26T04:48:24.099Z,80.35
2018-05-26T04:49:24.123Z,80.44
2018-05-26T04:50:24.153Z,81.12
2018-05-26T04:51:24.181Z,80.92
2018-05-26T04:52:24.202Z,81.12
2018-05-26T04:53:24.225Z,80.92
2018-05-26T04:54:24.251Z,80.92
2018-05-26T04:55:24.284Z,80.35
2018-05-26T04:56:24.310Z,80.25
2018-05-26T04:57:24.324Z,80.15
2018-05-26T04:58:24.358Z,80.25
2018-05-26T04:59:24.379Z,80.44
2018-05-26T05:00:24.404Z,80.35
2018-05-26T05:01:24.432Z,80.44
2018-05-26T05:02:24.454Z,80.63
2018-05-26T05:03:24.480Z,80.15
2018-05-26T05:04:24.506Z,80.15
2018-05-26T05:05:24.533Z,80.15
2018-05-26T05:06:24.569Z,80.63
2018-05-26T05:07:24.592Z,80.44
2018-05-26T05:08:24.611Z,80.25
2018-05-26T05:09:24.637Z,80.35
2018-05-26T05:10:24.714Z,80.25
2018-05-26T05:11:24.702Z,80.35
2018-05-26T05:12:24.726Z,81.79
2018-05-26T05:13:24.736Z,81.60
2018-05-26T05:14:24.771Z,81.30
2018-05-26T05:15:24.792Z,80.73
2018-05-26T05:16:24.817Z,81.02
2018-05-26T05:17:24.842Z,80.73
2018-05-26T05:18:24.877Z,80.25
2018-05-26T05:19:24.897Z,80.44
2018-05-26T05:20:24.921Z,80.35
2018-05-26T05:21:24.946Z,80.48
2018-05-26T05:22:24.972Z,80.35
2018-05-26T05:23:25.009Z,80.63
2018-05-26T05:24:25.030Z,80.68
2018-05-26T05:25:25.050Z,80.35
2018-05-26T05:26:25.073Z,80.54
2018-05-26T05:27:25.118Z,80.48
2018-05-26T05:28:25.124Z,80.77
2018-05-26T05:29:25.154Z,80.48
2018-05-26T05:30:25.174Z,81.40
2018-05-26T05:31:25.237Z,80.77
2018-05-26T05:32:25.250Z,80.29
2018-05-26T05:33:25.262Z,81.02
2018-05-26T05:34:25.285Z,80.68
2018-05-26T05:35:25.307Z,80.58
2018-05-26T05:36:25.336Z,80.19
2018-05-26T05:37:25.360Z,80.29
2018-05-26T05:38:25.389Z,80.87
2018-05-26T05:39:25.449Z,81.21
2018-05-26T05:40:25.441Z,81.02
2018-05-26T05:41:25.467Z,81.88
2018-05-26T05:42:25.492Z,81.54
2018-05-26T05:43:25.517Z,80.77
2018-05-26T05:44:25.547Z,80.58
2018-05-26T05:45:25.573Z,80.77
2018-05-26T05:46:25.598Z,80.19
2018-05-26T05:47:25.622Z,80.38
2018-05-26T05:48:25.645Z,80.68
2018-05-26T05:49:25.680Z,80.19
2018-05-26T05:50:25.704Z,80.48
2018-05-26T05:51:25.732Z,80.19
2018-05-26T05:52:25.751Z,80.00
2018-05-26T05:53:25.775Z,80.10
2018-05-26T05:54:25.799Z,80.19
2018-05-26T05:55:25.841Z,80.96
2018-05-26T05:56:25.898Z,81.06
2018-05-26T05:57:25.880Z,80.87
2018-05-26T05:58:25.913Z,80.29
2018-05-26T05:59:25.930Z,80.38
2018-05-26T06:00:25.960Z,80.68
2018-05-26T06:01:25.992Z,80.43
2018-05-26T06:02:26.015Z,80.71
2018-05-26T06:03:26.034Z,80.91
2018-05-26T06:04:26.067Z,80.43
2018-05-26T06:05:26.088Z,80.23
2018-05-26T06:06:26.124Z,80.33
2018-05-26T06:07:26.139Z,80.91
2018-05-26T06:08:26.163Z,80.33
2018-05-26T06:09:26.198Z,80.43
2018-05-26T06:10:26.225Z,80.62
2018-05-26T06:11:26.251Z,80.62
2018-05-26T06:12:26.275Z,81.29
2018-05-26T06:13:26.299Z,80.81
2018-05-26T06:14:26.331Z,80.43
2018-05-26T06:15:26.412Z,80.14
2018-05-26T06:16:26.391Z,80.23
2018-05-26T06:17:26.411Z,79.85
2018-05-26T06:18:26.435Z,79.94
2018-05-26T06:19:26.453Z,80.18
2018-05-26T06:20:26.485Z,79.98
2018-05-26T06:21:26.516Z,79.98
2018-05-26T06:22:26.533Z,79.79
2018-05-26T06:23:26.557Z,79.60
2018-05-26T06:24:26.594Z,79.89
2018-05-26T06:25:26.610Z,79.41
2018-05-26T06:26:26.692Z,79.60
2018-05-26T06:27:26.705Z,79.79
2018-05-26T06:28:26.690Z,79.79
2018-05-26T06:29:26.723Z,79.98
2018-05-26T06:30:26.801Z,80.18
2018-05-26T06:31:26.786Z,79.79
2018-05-26T06:32:26.805Z,79.98
2018-05-26T06:33:26.833Z,79.50
2018-05-26T06:34:26.853Z,78.63
2018-05-26T06:35:26.879Z,79.31
2018-05-26T06:36:26.915Z,78.34
2018-05-26T06:37:26.934Z,79.35
2018-05-26T06:38:26.959Z,78.96
2018-05-26T06:39:26.977Z,79.54
2018-05-26T06:40:27.002Z,79.25
2018-05-26T06:41:27.031Z,78.67
2018-05-26T06:42:27.064Z,79.54
2018-05-26T06:43:27.088Z,79.25
2018-05-26T06:44:27.125Z,78.96
2018-05-26T06:45:27.141Z,78.58
2018-05-26T06:46:27.245Z,78.86
2018-05-26T06:47:27.212Z,78.96
2018-05-26T06:48:27.217Z,79.35
2018-05-26T06:49:27.241Z,79.44
2018-05-26T06:50:27.280Z,79.44
2018-05-26T06:51:27.303Z,78.77
2018-05-26T06:52:27.334Z,78.86
2018-05-26T06:53:27.357Z,78.96
2018-05-26T06:54:27.380Z,79.06
2018-05-26T06:55:27.401Z,78.96
2018-05-26T06:56:27.434Z,78.96
2018-05-26T06:57:27.457Z,79.44
2018-05-26T06:58:27.482Z,78.96
2018-05-26T06:59:27.507Z,79.06
2018-05-26T07:00:27.537Z,79.16
2018-05-26T07:01:27.569Z,79.25
2018-05-26T07:02:27.602Z,78.61
2018-05-26T07:03:27.631Z,79.16
2018-05-26T07:04:27.647Z,79.06
2018-05-26T07:05:27.681Z,78.86
2018-05-26T07:06:27.736Z,78.67
2018-05-26T07:07:27.730Z,78.52
2018-05-26T07:08:27.757Z,78.71
2018-05-26T07:09:27.788Z,78.81
2018-05-26T07:10:27.807Z,78.23
2018-05-26T07:11:27.840Z,78.52
2018-05-26T07:12:27.857Z,78.42
2018-05-26T07:13:27.891Z,78.81
2018-05-26T07:14:27.917Z,78.61
2018-05-26T07:15:27.942Z,78.91
2018-05-26T07:16:27.965Z,78.42
2018-05-26T07:17:27.992Z,78.61
2018-05-26T07:18:28.021Z,77.75
2018-05-26T07:19:28.052Z,77.55
2018-05-26T07:20:28.075Z,77.17
2018-05-26T07:21:28.104Z,77.07
2018-05-26T07:22:28.129Z,77.36
2018-05-26T07:23:28.236Z,77.84
2018-05-26T07:24:28.188Z,77.36
2018-05-26T07:25:28.205Z,77.50
2018-05-26T07:26:28.242Z,77.65
2018-05-26T07:27:28.260Z,76.92
2018-05-26T07:28:28.289Z,76.43
2018-05-26T07:29:28.329Z,77.11
2018-05-26T07:30:28.341Z,76.98
2018-05-26T07:31:28.392Z,77.55
2018-05-26T07:32:28.401Z,77.01
2018-05-26T07:33:28.428Z,77.59
2018-05-26T07:34:28.450Z,77.40
2018-05-26T07:35:28.478Z,77.88
2018-05-26T07:36:28.525Z,77.88
2018-05-26T07:37:28.548Z,77.78
2018-05-26T07:38:28.565Z,77.98
2018-05-26T07:39:28.609Z,77.50
2018-05-26T07:40:28.617Z,77.21
2018-05-26T07:41:28.642Z,76.92
2018-05-26T07:42:28.673Z,77.01
2018-05-26T07:43:28.696Z,77.59
2018-05-26T07:44:28.727Z,77.78
2018-05-26T07:45:28.762Z,77.78
2018-05-26T07:46:28.796Z,77.50
2018-05-26T07:47:28.812Z,77.21
2018-05-26T07:48:28.835Z,76.15
2018-05-26T07:49:28.870Z,77.01
2018-05-26T07:50:28.888Z,76.24
2018-05-26T07:51:28.923Z,76.24
2018-05-26T07:52:28.946Z,75.37
2018-05-26T07:53:28.974Z,75.27
2018-05-26T07:54:29.011Z,75.85
2018-05-26T07:55:29.026Z,75.57
2018-05-26T07:56:29.086Z,75.70
2018-05-26T07:57:29.094Z,75.31
2018-05-26T07:58:29.136Z,74.83
2018-05-26T07:59:29.151Z,74.93
2018-05-26T08:00:29.166Z,74.93
2018-05-26T08:01:29.198Z,75.02
2018-05-26T08:02:29.213Z,74.44
2018-05-26T08:03:29.245Z,74.06
2018-05-26T08:04:29.271Z,74.44
2018-05-26T08:05:29.368Z,74.25
2018-05-26T08:06:29.337Z,74.06
2018-05-26T08:07:29.361Z,74.73
2018-05-26T08:08:29.382Z,74.93
2018-05-26T08:09:29.415Z,74.25
2018-05-26T08:10:29.437Z,74.35
2018-05-26T08:11:29.473Z,74.54
2018-05-26T08:12:29.497Z,74.10
2018-05-26T08:13:29.524Z,74.29
2018-05-26T08:14:29.559Z,74.58
2018-05-26T08:15:29.579Z,74.19
2018-05-26T08:16:29.605Z,74.19
2018-05-26T08:17:29.681Z,74.19
2018-05-26T08:18:29.656Z,74.58
2018-05-26T08:19:29.691Z,74.58
2018-05-26T08:20:29.714Z,74.19
2018-05-26T08:21:29.742Z,74.48
2018-05-26T08:22:29.770Z,74.38
2018-05-26T08:23:29.797Z,74.10
2018-05-26T08:24:29.829Z,74.10
2018-05-26T08:25:29.861Z,73.71
2018-05-26T08:26:29.888Z,73.61
2018-05-26T08:27:29.902Z,73.32
2018-05-26T08:28:29.936Z,72.78
2018-05-26T08:29:29.972Z,72.20
2018-05-26T08:30:29.991Z,72.30
2018-05-26T08:31:30.020Z,72.39
2018-05-26T08:32:30.053Z,72.49
2018-05-26T08:33:30.077Z,72.20
2018-05-26T08:34:30.109Z,72.58
2018-05-26T08:35:30.144Z,72.39
2018-05-26T08:36:30.153Z,72.68
2018-05-26T08:37:30.267Z,72.49
2018-05-26T08:38:30.215Z,72.20
2018-05-26T08:39:30.246Z,72.00
2018-05-26T08:40:30.277Z,71.91
2018-05-26T08:41:30.307Z,71.81
2018-05-26T08:42:30.329Z,71.14
2018-05-26T08:43:30.356Z,72.30
2018-05-26T08:44:30.381Z,71.91
2018-05-26T08:45:30.437Z,72.39
2018-05-26T08:46:30.441Z,71.94
2018-05-26T08:47:30.463Z,71.75
2018-05-26T08:48:30.514Z,70.98
2018-05-26T08:49:30.517Z,70.68
2018-05-26T08:50:30.555Z,70.88
2018-05-26T08:51:30.586Z,70.68
2018-05-26T08:52:30.606Z,70.78
2018-05-26T08:53:30.630Z,70.78
2018-05-26T08:54:30.661Z,71.36
2018-05-26T08:55:30.690Z,71.08
2018-05-26T08:56:30.721Z,71.17
2018-05-26T08:57:30.748Z,71.84
2018-05-26T08:58:30.796Z,71.26
2018-05-26T08:59:30.824Z,71.08
2018-05-26T09:00:30.835Z,71.08
2018-05-26T09:01:30.866Z,71.11
2018-05-26T09:02:30.893Z,70.62
2018-05-26T09:03:30.930Z,70.82
2018-05-26T09:04:30.955Z,70.24
2018-05-26T09:05:30.980Z,70.62
2018-05-26T09:06:31.059Z,70.14
2018-05-26T09:07:31.074Z,70.24
2018-05-26T09:08:31.065Z,69.75
2018-05-26T09:09:31.087Z,70.14
2018-05-26T09:10:31.111Z,70.62
2018-05-26T09:11:31.140Z,70.24
2018-05-26T09:12:31.175Z,70.04
2018-05-26T09:13:31.200Z,70.04
2018-05-26T09:14:31.226Z,70.24
2018-05-26T09:15:31.257Z,70.14
2018-05-26T09:16:31.284Z,69.46
2018-05-26T09:17:31.318Z,69.66
2018-05-26T09:18:31.346Z,69.85
2018-05-26T09:19:31.375Z,69.95
2018-05-26T09:20:31.397Z,70.24
2018-05-26T09:21:31.421Z,70.34
2018-05-26T09:22:31.455Z,70.14
2018-05-26T09:23:31.484Z,70.14
2018-05-26T09:24:31.515Z,69.46
2018-05-26T09:25:31.572Z,69.56
2018-05-26T09:26:31.563Z,69.85
2018-05-26T09:27:31.602Z,70.14
2018-05-26T09:28:31.623Z,70.34
2018-05-26T09:29:31.662Z,70.53
2018-05-26T09:30:31.682Z,70.24
2018-05-26T09:31:31.710Z,70.43
2018-05-26T09:32:31.750Z,70.62
2018-05-26T09:33:31.775Z,70.14
2018-05-26T09:34:31.797Z,69.75
2018-05-26T09:35:31.820Z,69.79
2018-05-26T09:36:31.847Z,69.66
2018-05-26T09:37:31.888Z,69.69
2018-05-26T09:38:31.910Z,70.43
2018-05-26T09:39:31.934Z,70.24
2018-05-26T09:40:32.010Z,70.82
2018-05-26T09:41:31.995Z,70.82
2018-05-26T09:42:32.026Z,70.82
2018-05-26T09:43:32.060Z,71.50
2018-05-26T09:44:32.089Z,70.92
2018-05-26T09:45:32.125Z,70.92
2018-05-26T09:46:32.143Z,70.72
2018-05-26T09:47:32.167Z,70.37
2018-05-26T09:48:32.219Z,70.18
2018-05-26T09:49:32.221Z,69.40
2018-05-26T09:50:32.249Z,69.59
2018-05-26T09:51:32.288Z,69.40
2018-05-26T09:52:32.312Z,70.50
2018-05-26T09:53:32.337Z,68.82
2018-05-26T09:54:32.364Z,70.40
2018-05-26T09:55:32.401Z,70.40
2018-05-26T09:56:32.481Z,68.18
2018-05-26T09:57:32.448Z,68.27
2018-05-26T09:58:32.474Z,67.79
2018-05-26T09:59:32.506Z,66.34
2018-05-26T10:00:32.552Z,66.34
2018-05-26T10:01:32.563Z,66.24
2018-05-26T10:02:32.596Z,64.59
2018-05-26T10:03:32.619Z,65.27
2018-05-26T10:04:32.650Z,65.37
2018-05-26T10:05:32.713Z,64.59
2018-05-26T10:06:32.706Z,64.11
2018-05-26T10:07:32.742Z,64.69
2018-05-26T10:08:32.760Z,65.75
2018-05-26T10:09:32.810Z,65.56
2018-05-26T10:10:32.829Z,65.75
2018-05-26T10:11:32.874Z,66.72
2018-05-26T10:12:32.883Z,68.37
2018-05-26T10:13:32.914Z,66.82
2018-05-26T10:14:32.956Z,66.92
2018-05-26T10:15:32.973Z,65.95
2018-05-26T10:16:32.998Z,63.82
2018-05-26T10:17:33.028Z,63.85
2018-05-26T10:18:33.068Z,63.95
2018-05-26T10:19:33.103Z,62.98
2018-05-26T10:20:33.108Z,64.14
2018-05-26T10:21:33.145Z,64.04
2018-05-26T10:22:33.169Z,64.04
2018-05-26T10:23:33.206Z,65.01
2018-05-26T10:24:33.236Z,63.56
2018-05-26T10:25:33.259Z,63.27
2018-05-26T10:26:33.286Z,61.91
2018-05-26T10:27:33.317Z,63.37
2018-05-26T10:28:33.369Z,64.14
2018-05-26T10:29:33.373Z,64.43
2018-05-26T10:30:33.402Z,62.79
2018-05-26T10:31:33.435Z,61.91
2018-05-26T10:32:33.467Z,60.65
2018-05-26T10:33:33.491Z,59.59
2018-05-26T10:34:33.529Z,61.52
2018-05-26T10:35:33.609Z,60.65
2018-05-26T10:36:33.580Z,61.33
2018-05-26T10:37:33.608Z,62.40
2018-05-26T10:38:33.650Z,64.14
2018-05-26T10:39:33.667Z,63.65
2018-05-26T10:40:33.696Z,64.04
2018-05-26T10:41:33.727Z,63.07
2018-05-26T10:42:33.760Z,63.46
2018-05-26T10:43:33.791Z,63.37
2018-05-26T10:44:33.808Z,62.88
2018-05-26T10:45:33.835Z,63.85
2018-05-26T10:46:33.872Z,64.24
2018-05-26T10:47:33.909Z,65.01
2018-05-26T10:48:33.927Z,65.11
2018-05-26T10:49:33.958Z,66.40
2018-05-26T10:50:33.989Z,65.72
2018-05-26T10:51:34.029Z,64.62
2018-05-26T10:52:34.043Z,63.01
2018-05-26T10:53:34.110Z,62.04
2018-05-26T10:54:34.106Z,63.78
2018-05-26T10:55:34.162Z,64.47
2018-05-26T10:56:34.160Z,63.40
2018-05-26T10:57:34.195Z,63.01
2018-05-26T10:58:34.215Z,63.37
2018-05-26T10:59:34.254Z,64.56
2018-05-26T11:00:34.293Z,64.53
2018-05-26T11:01:34.305Z,65.59
2018-05-26T11:02:34.337Z,64.92
2018-05-26T11:03:34.369Z,62.69
2018-05-26T11:04:34.397Z,64.65
2018-05-26T11:05:34.427Z,64.37
2018-05-26T11:06:34.453Z,65.40
2018-05-26T11:07:34.481Z,65.63
2018-05-26T11:08:34.515Z,65.30
2018-05-26T11:09:34.545Z,65.63
2018-05-26T11:10:34.573Z,65.34
2018-05-26T11:11:34.601Z,66.99
2018-05-26T11:12:34.635Z,65.24
2018-05-26T11:13:34.660Z,65.53
2018-05-26T11:14:34.713Z,63.33
2018-05-26T11:15:34.822Z,60.71
2018-05-26T11:16:34.748Z,61.07
2018-05-26T11:17:34.776Z,62.72
2018-05-26T11:18:34.808Z,63.62
2018-05-26T11:19:34.887Z,63.40
2018-05-26T11:20:34.882Z,64.65
2018-05-26T11:21:34.901Z,65.05
2018-05-26T11:22:34.935Z,62.62
2018-05-26T11:23:35.003Z,64.27
2018-05-26T11:24:35.039Z,64.75
2018-05-26T11:25:35.067Z,63.88
2018-05-26T11:26:35.044Z,62.26
2018-05-26T11:27:35.076Z,62.55
2018-05-26T11:28:35.115Z,63.85
2018-05-26T11:29:35.154Z,63.04
2018-05-26T11:30:35.200Z,63.91
2018-05-26T11:31:35.200Z,64.01
2018-05-26T11:32:35.227Z,64.40
2018-05-26T11:33:35.249Z,62.78
2018-05-26T11:34:35.277Z,62.95
2018-05-26T11:35:35.314Z,60.52
2018-05-26T11:36:35.340Z,61.78
2018-05-26T11:37:35.374Z,59.64
2018-05-26T11:38:35.402Z,59.00
2018-05-26T11:39:35.433Z,57.93
2018-05-26T11:40:35.462Z,57.73
2018-05-26T11:41:35.494Z,59.09
2018-05-26T11:42:35.520Z,61.22
2018-05-26T11:43:35.612Z,60.45
2018-05-26T11:44:35.576Z,59.87
2018-05-26T11:45:35.605Z,57.86
2018-05-26T11:46:35.645Z,56.79
2018-05-26T11:47:35.663Z,56.79
2018-05-26T11:48:35.704Z,57.28
2018-05-26T11:49:35.732Z,57.18
2018-05-26T11:50:35.761Z,58.03
2018-05-26T11:51:35.797Z,56.89
2018-05-26T11:52:35.816Z,58.15
2018-05-26T11:53:35.848Z,58.83
2018-05-26T11:54:35.876Z,57.28
2018-05-26T11:55:35.906Z,56.60
2018-05-26T11:56:35.964Z,56.50
2018-05-26T11:57:35.979Z,56.21
2018-05-26T11:58:36.004Z,57.18
2018-05-26T11:59:36.034Z,56.04
2018-05-26T12:00:36.052Z,55.46
2018-05-26T12:01:36.082Z,55.07
2018-05-26T12:02:36.123Z,55.65
2018-05-26T12:03:36.146Z,56.34
2018-05-26T12:04:36.175Z,55.75
2018-05-26T12:05:36.205Z,54.75
2018-05-26T12:06:36.235Z,56.89
2018-05-26T12:07:36.262Z,57.08
2018-05-26T12:08:36.300Z,55.53
2018-05-26T12:09:36.331Z,54.56
2018-05-26T12:10:36.416Z,55.27
2018-05-26T12:11:36.388Z,55.73
2018-05-26T12:12:36.419Z,54.68
2018-05-26T12:13:36.443Z,52.84
2018-05-26T12:14:36.480Z,53.13
2018-05-26T12:15:36.510Z,54.71
2018-05-26T12:16:36.541Z,54.88
2018-05-26T12:17:36.566Z,56.92
2018-05-26T12:18:36.599Z,53.45
2018-05-26T12:19:36.684Z,53.35
2018-05-26T12:20:36.656Z,52.28
2018-05-26T12:21:36.694Z,54.32
2018-05-26T12:22:36.725Z,53.93
2018-05-26T12:23:36.749Z,51.89
2018-05-26T12:24:36.788Z,51.99
2018-05-26T12:25:36.807Z,52.09
2018-05-26T12:26:36.849Z,51.23
2018-05-26T12:27:36.869Z,51.04
2018-05-26T12:28:36.926Z,52.01
2018-05-26T12:29:36.930Z,51.53
2018-05-26T12:30:36.964Z,50.07
2018-05-26T12:31:36.990Z,49.27
2018-05-26T12:32:37.018Z,49.68
2018-05-26T12:33:37.060Z,51.21
2018-05-26T12:34:37.095Z,51.62
2018-05-26T12:35:37.108Z,49.97
2018-05-26T12:36:37.142Z,50.16
2018-05-26T12:37:37.170Z,51.04
2018-05-26T12:38:37.211Z,50.75
2018-05-26T12:39:37.260Z,50.36
2018-05-26T12:40:37.262Z,49.12
2018-05-26T12:41:37.288Z,49.39
2018-05-26T12:42:37.330Z,49.00
2018-05-26T12:43:37.359Z,48.61
2018-05-26T12:44:37.386Z,49.22
2018-05-26T12:45:37.415Z,48.41
2018-05-26T12:46:37.451Z,49.32
2018-05-26T12:47:37.478Z,48.32
2018-05-26T12:48:37.510Z,48.51
2018-05-26T12:49:37.536Z,50.36
2018-05-26T12:50:37.566Z,48.80
2018-05-26T12:51:37.594Z,48.63
2018-05-26T12:52:37.628Z,48.41